createdAt,value
2023-03-29T00:01:57.368Z,47.10
2023-03-29T00:04:29.867Z,46.00
2023-03-29T00:07:05.224Z,40.20
2023-03-29T00:09:34.483Z,42.60
2023-03-29T00:12:05.001Z,43.60
2023-03-29T00:15:07.224Z,43.20
2023-03-29T00:17:40.135Z,109.50
2023-03-29T00:20:18.006Z,63.10
2023-03-29T00:22:52.923Z,53.80
2023-03-29T00:25:22.875Z,57.70
2023-03-29T00:28:04.876Z,57.20
2023-03-29T00:30:37.951Z,61.00
2023-03-29T00:33:11.720Z,55.30
2023-03-29T00:35:43.306Z,49.00
2023-03-29T00:38:16.179Z,47.90
2023-03-29T00:40:52.327Z,43.00
2023-03-29T00:43:27.692Z,46.90
2023-03-29T00:46:03.278Z,44.60
2023-03-29T00:48:36.304Z,46.90
2023-03-29T00:51:21.549Z,48.40
2023-03-29T00:54:06.707Z,46.00
2023-03-29T00:56:53.373Z,48.00
2023-03-29T00:59:33.117Z,46.00
2023-03-29T01:02:09.733Z,47.90
2023-03-29T01:04:58.470Z,47.90
2023-03-29T01:07:38.436Z,43.90
2023-03-29T01:10:28.890Z,43.70
2023-03-29T01:13:13.692Z,44.70
2023-03-29T01:15:47.478Z,43.50
2023-03-29T01:18:25.856Z,43.50
2023-03-29T01:21:11.495Z,47.70
2023-03-29T01:24:07.427Z,45.30
2023-03-29T01:27:03.722Z,46.00
2023-03-29T01:29:45.008Z,44.00
2023-03-29T01:32:38.678Z,47.20
2023-03-29T01:35:31.368Z,46.60
2023-03-29T01:38:44.280Z,45.10
2023-03-29T01:41:23.179Z,44.70
2023-03-29T01:44:10.669Z,44.90
2023-03-29T01:47:00.722Z,42.80
2023-03-29T01:49:44.265Z,43.80
2023-03-29T01:52:37.322Z,45.10
2023-03-29T01:55:23.033Z,47.40
2023-03-29T01:58:00.087Z,47.10
2023-03-29T02:00:37.762Z,45.90
2023-03-29T02:03:19.605Z,45.90
2023-03-29T02:05:58.394Z,49.00
2023-03-29T02:08:37.409Z,45.60
2023-03-29T02:11:22.255Z,43.90
2023-03-29T02:13:57.269Z,44.30
2023-03-29T02:16:46.780Z,40.20
2023-03-29T02:19:25.792Z,41.90
2023-03-29T02:22:11.030Z,39.70
2023-03-29T02:24:54.000Z,39.60
2023-03-29T02:27:30.282Z,42.50
2023-03-29T02:30:02.713Z,42.40
2023-03-29T02:33:18.394Z,46.40
2023-03-29T02:36:52.250Z,42.40
2023-03-29T02:39:33.289Z,42.40
2023-03-29T02:42:36.836Z,46.00
2023-03-29T02:45:18.448Z,48.50
2023-03-29T02:47:57.086Z,53.80
2023-03-29T02:50:56.780Z,49.50
2023-03-29T02:53:47.044Z,46.00
2023-03-29T02:56:27.999Z,49.60
2023-03-29T02:59:09.743Z,59.10
2023-03-29T03:01:45.858Z,62.30
2023-03-29T03:04:21.180Z,51.10
2023-03-29T03:06:56.975Z,51.30
2023-03-29T03:09:32.162Z,59.90
2023-03-29T03:12:04.678Z,53.80
2023-03-29T03:14:36.761Z,53.00
2023-03-29T03:17:07.816Z,54.70
2023-03-29T03:19:47.975Z,48.40
2023-03-29T03:22:24.613Z,51.50
2023-03-29T03:25:02.458Z,48.20
2023-03-29T03:27:38.593Z,46.80
2023-03-29T03:30:18.134Z,47.00
2023-03-29T03:33:27.274Z,44.50
2023-03-29T03:36:35.188Z,44.40
2023-03-29T03:39:08.598Z,47.80
2023-03-29T03:41:46.500Z,53.50
2023-03-29T03:44:33.558Z,51.60
2023-03-29T03:47:23.516Z,46.80
2023-03-29T03:49:54.486Z,43.70
2023-03-29T03:52:33.813Z,44.00
2023-03-29T03:55:09.151Z,38.10
2023-03-29T03:57:49.917Z,37.70
2023-03-29T04:00:22.595Z,48.10
2023-03-29T04:02:59.613Z,107.10
2023-03-29T04:05:34.818Z,164.00
2023-03-29T04:08:07.882Z,119.50
2023-03-29T04:10:58.677Z,83.20
2023-03-29T04:13:39.069Z,88.00
2023-03-29T04:16:32.571Z,66.80
2023-03-29T04:19:13.178Z,87.40
2023-03-29T04:21:46.116Z,66.10
2023-03-29T04:24:17.610Z,79.60
2023-03-29T04:26:56.806Z,106.30
2023-03-29T04:29:35.908Z,102.20
2023-03-29T04:32:22.749Z,74.00
2023-03-29T04:35:06.936Z,74.10
2023-03-29T04:37:45.291Z,71.50
2023-03-29T04:40:20.839Z,144.30
2023-03-29T04:43:06.578Z,177.60
2023-03-29T04:45:43.388Z,136.20
2023-03-29T04:48:21.151Z,109.40
2023-03-29T04:51:03.647Z,84.70
2023-03-29T04:53:43.210Z,59.00
2023-03-29T04:56:17.814Z,48.50
2023-03-29T04:59:17.321Z,38.20
2023-03-29T05:01:48.069Z,62.80
2023-03-29T05:04:22.284Z,48.60
2023-03-29T05:07:23.778Z,45.20
2023-03-29T05:10:10.893Z,38.90
2023-03-29T05:13:03.259Z,37.60
2023-03-29T05:15:46.682Z,38.60
2023-03-29T05:18:18.680Z,39.40
2023-03-29T05:20:56.144Z,35.00
2023-03-29T05:23:31.320Z,34.90
2023-03-29T05:26:15.588Z,32.80
2023-03-29T05:28:59.015Z,34.30
2023-03-29T05:31:32.915Z,31.80
2023-03-29T05:34:10.331Z,32.70
2023-03-29T05:36:53.700Z,29.90
2023-03-29T05:39:29.412Z,32.10
2023-03-29T05:42:03.540Z,29.20
2023-03-29T05:44:47.834Z,45.00
2023-03-29T05:47:28.975Z,43.20
2023-03-29T05:50:10.803Z,35.10
2023-03-29T05:52:49.992Z,36.80
2023-03-29T05:55:25.777Z,35.50
2023-03-29T05:57:58.773Z,36.60
2023-03-29T06:00:34.873Z,36.90
2023-03-29T06:03:25.650Z,36.90
2023-03-29T06:06:20.629Z,36.10
2023-03-29T06:08:54.135Z,32.50
2023-03-29T06:11:41.259Z,35.20
2023-03-29T06:14:35.986Z,28.80
2023-03-29T06:17:39.963Z,30.00
2023-03-29T06:20:17.431Z,26.70
2023-03-29T06:22:52.896Z,44.10
2023-03-29T06:25:26.117Z,33.00
2023-03-29T06:28:01.627Z,49.30
2023-03-29T06:30:35.274Z,43.20
2023-03-29T06:33:11.728Z,34.20
2023-03-29T06:36:14.114Z,30.70
2023-03-29T06:38:46.346Z,33.50
2023-03-29T06:41:30.639Z,33.50
2023-03-29T06:44:20.231Z,30.10
2023-03-29T06:47:02.184Z,31.60
2023-03-29T06:49:37.531Z,29.20
2023-03-29T06:52:23.103Z,28.50
2023-03-29T06:54:57.546Z,26.20
2023-03-29T06:57:36.620Z,28.60
2023-03-29T07:00:32.515Z,27.20
2023-03-29T07:03:20.404Z,24.50
2023-03-29T07:06:16.607Z,24.60
2023-03-29T07:08:54.603Z,25.50
2023-03-29T07:11:40.539Z,28.30
2023-03-29T07:14:31.536Z,23.30
2023-03-29T07:17:12.263Z,22.80
2023-03-29T07:19:55.135Z,22.00
2023-03-29T07:23:10.837Z,21.80
2023-03-29T07:26:00.523Z,20.10
2023-03-29T07:28:40.864Z,21.00
2023-03-29T07:31:28.281Z,21.50
2023-03-29T07:34:08.707Z,18.80
2023-03-29T07:37:04.090Z,19.60
2023-03-29T07:39:45.465Z,17.20
2023-03-29T07:42:43.675Z,18.00
2023-03-29T07:45:30.046Z,17.30
2023-03-29T07:48:35.487Z,17.80
2023-03-29T07:51:17.170Z,16.70
2023-03-29T07:54:16.158Z,17.70
2023-03-29T07:57:27.588Z,18.50
2023-03-29T08:00:22.458Z,17.80
2023-03-29T08:03:30.355Z,18.20
2023-03-29T08:06:11.831Z,17.00
2023-03-29T08:09:02.242Z,18.80
2023-03-29T08:11:43.414Z,14.90
2023-03-29T08:14:38.112Z,15.50
2023-03-29T08:17:40.162Z,13.80
2023-03-29T08:20:40.685Z,14.70
2023-03-29T08:23:14.447Z,19.10
2023-03-29T08:26:23.964Z,13.70
2023-03-29T08:28:57.680Z,12.60
2023-03-29T08:31:29.684Z,12.30
2023-03-29T08:34:03.804Z,13.20
2023-03-29T08:37:01.115Z,13.40
2023-03-29T08:39:42.125Z,10.10
2023-03-29T08:43:04.355Z,12.40
2023-03-29T08:46:16.753Z,13.30
2023-03-29T08:49:07.586Z,10.20
2023-03-29T08:51:53.482Z,8.80
2023-03-29T08:54:49.073Z,7.70
2023-03-29T08:57:48.339Z,7.20
2023-03-29T09:00:43.487Z,7.90
2023-03-29T09:03:31.880Z,7.30
2023-03-29T09:06:18.494Z,6.80
2023-03-29T09:09:00.796Z,4.70
2023-03-29T09:11:51.068Z,7.10
2023-03-29T09:14:30.647Z,7.50
2023-03-29T09:17:31.975Z,6.30
2023-03-29T09:20:24.060Z,4.80
2023-03-29T09:23:47.899Z,4.90
2023-03-29T09:30:56.845Z,3.10
2023-03-29T09:34:10.586Z,5.00
2023-03-29T09:37:21.733Z,4.50
2023-03-29T09:40:04.649Z,3.50
2023-03-29T09:42:55.552Z,5.60
2023-03-29T09:45:53.376Z,5.20
2023-03-29T09:48:41.278Z,3.70
2023-03-29T09:51:18.127Z,4.80
2023-03-29T09:53:50.396Z,5.00
2023-03-29T09:56:47.116Z,12.30
2023-03-29T09:59:25.324Z,3.30
2023-03-29T10:02:14.942Z,4.10
2023-03-29T10:04:48.389Z,9.40
2023-03-29T10:07:21.045Z,3.50
2023-03-29T10:09:57.882Z,6.40
2023-03-29T10:12:37.236Z,4.20
2023-03-29T10:15:26.612Z,4.60
2023-03-29T10:18:15.056Z,3.60
2023-03-29T10:20:48.421Z,4.10
2023-03-29T10:23:22.368Z,2.70
2023-03-29T10:26:04.577Z,3.50
2023-03-29T10:28:40.515Z,4.50
2023-03-29T10:31:25.899Z,4.60
2023-03-29T10:34:11.950Z,3.90
2023-03-29T10:36:50.617Z,2.90
2023-03-29T10:39:20.929Z,4.50
2023-03-29T10:41:53.513Z,3.90
2023-03-29T10:44:36.914Z,9.50
2023-03-29T10:47:29.130Z,6.40
2023-03-29T10:49:59.249Z,10.60
2023-03-29T10:52:30.410Z,3.70
2023-03-29T10:55:02.819Z,3.20
2023-03-29T10:58:16.619Z,5.80
2023-03-29T11:01:00.752Z,4.80
2023-03-29T11:04:17.454Z,4.90
2023-03-29T11:07:26.544Z,5.60
2023-03-29T11:10:34.793Z,4.40
2023-03-29T11:13:34.788Z,7.20
2023-03-29T11:16:58.255Z,5.50
2023-03-29T11:20:17.857Z,7.30
2023-03-29T11:23:16.650Z,6.70
2023-03-29T11:26:23.846Z,3.90
2023-03-29T11:29:11.796Z,5.60
2023-03-29T11:32:28.095Z,3.30
2023-03-29T11:35:29.739Z,5.20
2023-03-29T11:38:47.910Z,5.30
2023-03-29T11:41:44.376Z,5.20
2023-03-29T11:44:40.143Z,5.40
2023-03-29T11:47:35.404Z,4.30
2023-03-29T11:50:59.529Z,5.80
2023-03-29T11:53:52.236Z,3.50
2023-03-29T11:57:07.037Z,5.50
2023-03-29T12:05:50.549Z,4.80
2023-03-29T12:08:47.531Z,3.70
2023-03-29T12:11:49.094Z,4.50
2023-03-29T12:14:30.144Z,4.80
2023-03-29T12:17:10.830Z,4.50
2023-03-29T12:28:12.196Z,4.70
2023-03-29T12:31:06.611Z,5.10
2023-03-29T12:38:10.289Z,5.30
2023-03-29T12:41:25.653Z,4.70
2023-03-29T12:44:32.329Z,4.70
2023-03-29T12:47:34.681Z,5.60
2023-03-29T12:50:32.387Z,5.00
2023-03-29T12:53:27.893Z,4.00
2023-03-29T12:56:04.793Z,3.50
2023-03-29T12:58:43.527Z,3.60
2023-03-29T13:01:37.917Z,4.80
2023-03-29T13:04:21.709Z,4.50
2023-03-29T13:07:09.034Z,5.30
2023-03-29T13:10:08.365Z,5.80
2023-03-29T13:12:51.608Z,5.40
2023-03-29T13:15:41.766Z,4.30
2023-03-29T13:19:18.636Z,5.70
2023-03-29T13:22:08.686Z,6.00
2023-03-29T13:25:41.773Z,8.40
2023-03-29T13:28:47.480Z,9.40
2023-03-29T13:31:35.789Z,7.00
2023-03-29T13:34:20.725Z,8.60
2023-03-29T13:37:21.361Z,8.10
2023-03-29T13:39:56.937Z,7.00
2023-03-29T13:42:46.751Z,7.70
2023-03-29T13:45:33.206Z,6.10
2023-03-29T13:48:34.302Z,5.20
2023-03-29T13:51:35.549Z,8.80
2023-03-29T13:54:43.089Z,6.90
2023-03-29T13:58:02.102Z,5.80
2023-03-29T14:00:54.520Z,4.50
2023-03-29T14:03:50.263Z,4.90
2023-03-29T14:06:35.059Z,6.80
2023-03-29T14:09:09.715Z,6.50
2023-03-29T14:12:08.315Z,5.30
2023-03-29T14:14:51.709Z,5.70
2023-03-29T14:17:37.313Z,5.60
2023-03-29T14:20:10.297Z,6.00
2023-03-29T14:23:03.133Z,5.40
2023-03-29T14:26:09.130Z,7.10
2023-03-29T14:29:07.819Z,5.60
2023-03-29T14:31:52.374Z,5.00
2023-03-29T14:34:39.822Z,6.00
2023-03-29T14:37:37.524Z,5.20
2023-03-29T14:40:45.627Z,5.00
2023-03-29T14:43:39.993Z,11.70
2023-03-29T14:46:49.024Z,7.20
2023-03-29T14:50:05.462Z,6.70
2023-03-29T14:52:52.629Z,6.80
2023-03-29T14:55:56.401Z,7.70
2023-03-29T14:58:46.878Z,7.00
2023-03-29T15:01:49.021Z,10.60
2023-03-29T15:04:36.556Z,7.20
2023-03-29T15:09:07.251Z,8.50
2023-03-29T15:11:42.598Z,7.60
2023-03-29T15:15:04.235Z,7.30
2023-03-29T15:17:56.973Z,6.40
2023-03-29T15:21:07.732Z,6.10
2023-03-29T15:24:07.821Z,5.10
2023-03-29T15:27:03.364Z,9.20
2023-03-29T15:29:51.768Z,7.90
2023-03-29T15:32:55.040Z,7.40
2023-03-29T15:36:03.691Z,7.10
2023-03-29T15:39:05.929Z,8.10
2023-03-29T15:47:36.814Z,8.70
2023-03-29T15:50:31.750Z,8.50
2023-03-29T15:53:19.432Z,10.70
2023-03-29T15:57:31.467Z,14.20
2023-03-29T16:00:44.710Z,12.10
2023-03-29T16:03:55.459Z,12.70
2023-03-29T16:06:53.339Z,21.90
2023-03-29T16:09:30.244Z,19.20
2023-03-29T16:12:23.738Z,17.60
2023-03-29T16:15:01.053Z,16.90
2023-03-29T16:17:52.416Z,15.50
2023-03-29T16:21:17.640Z,12.90
2023-03-29T16:24:17.483Z,11.40
2023-03-29T16:26:56.992Z,9.80
2023-03-29T16:29:41.036Z,10.10
2023-03-29T16:36:10.759Z,11.60
2023-03-29T16:38:54.400Z,11.10
2023-03-29T16:41:39.514Z,12.90
2023-03-29T16:45:01.252Z,12.10
2023-03-29T16:48:09.993Z,11.30
2023-03-29T16:50:55.956Z,13.60
2023-03-29T16:54:43.903Z,17.40
2023-03-29T16:57:53.243Z,19.40
2023-03-29T17:03:36.915Z,23.60
2023-03-29T17:06:50.014Z,22.00
2023-03-29T17:09:32.771Z,20.10
2023-03-29T17:12:18.931Z,19.80
2023-03-29T17:18:03.220Z,24.40
2023-03-29T17:21:25.118Z,29.20
2023-03-29T17:24:14.827Z,31.10
2023-03-29T17:27:34.535Z,33.00
2023-03-29T17:30:22.589Z,40.40
2023-03-29T17:33:11.133Z,35.70
2023-03-29T17:39:45.542Z,23.90
2023-03-29T17:42:30.136Z,26.90
2023-03-29T17:45:29.879Z,23.90
2023-03-29T17:48:26.157Z,20.10
2023-03-29T17:51:26.603Z,20.30
2023-03-29T17:55:17.013Z,19.90
2023-03-29T18:01:54.765Z,25.20
2023-03-29T18:05:08.499Z,21.40
2023-03-29T18:09:48.429Z,23.00
2023-03-29T18:13:27.235Z,25.80
2023-03-29T18:33:46.070Z,29.70
2023-03-29T18:43:38.758Z,43.10
2023-03-29T18:50:25.563Z,50.20
2023-03-29T18:53:22.567Z,50.30
2023-03-29T18:56:17.959Z,61.40
2023-03-29T18:59:11.726Z,58.70
2023-03-29T19:02:57.895Z,52.90
2023-03-29T19:06:04.173Z,45.60
2023-03-29T19:09:02.375Z,39.50
2023-03-29T19:13:07.527Z,36.90
2023-03-29T19:16:12.424Z,36.10
2023-03-29T19:19:12.594Z,36.80
2023-03-29T19:22:40.347Z,31.20
2023-03-29T19:25:44.633Z,29.80
2023-03-29T19:28:38.597Z,30.60
2023-03-29T19:31:42.108Z,30.80
2023-03-29T19:34:41.061Z,36.70
2023-03-29T19:37:57.883Z,32.50
2023-03-29T19:41:29.816Z,38.70
2023-03-29T19:44:40.708Z,38.10
2023-03-29T19:48:21.791Z,35.60
2023-03-29T19:51:40.718Z,30.70
2023-03-29T19:54:51.186Z,28.40
2023-03-29T19:57:45.557Z,24.00
2023-03-29T20:04:13.456Z,28.40
2023-03-29T20:07:54.756Z,26.90
2023-03-29T20:11:52.833Z,38.30
2023-03-29T20:15:53.710Z,33.80
2023-03-29T20:27:06.533Z,50.10
2023-03-29T20:33:20.391Z,59.80
2023-03-29T20:36:20.444Z,63.10
2023-03-29T20:39:04.948Z,75.60
2023-03-29T20:42:04.249Z,66.70
2023-03-29T20:45:27.526Z,49.30
2023-03-29T20:48:14.503Z,48.50
2023-03-29T20:50:59.822Z,41.80
2023-03-29T20:53:58.904Z,31.90
2023-03-29T20:56:42.971Z,31.60
2023-03-29T20:59:39.676Z,27.60
2023-03-29T21:02:23.380Z,25.80
2023-03-29T21:05:22.751Z,22.50
2023-03-29T21:08:18.282Z,22.20
2023-03-29T21:11:15.934Z,19.40
2023-03-29T21:14:07.932Z,18.90
2023-03-29T21:17:02.587Z,20.80
2023-03-29T21:19:53.465Z,19.20
2023-03-29T21:22:34.820Z,18.10
2023-03-29T21:25:28.268Z,17.10
2023-03-29T21:28:23.622Z,18.10
2023-03-29T21:31:17.697Z,17.80
2023-03-29T21:34:30.960Z,25.20
2023-03-29T21:37:16.342Z,20.60
2023-03-29T21:40:28.734Z,18.60
2023-03-29T21:43:25.409Z,17.70
2023-03-29T21:46:26.808Z,18.60
2023-03-29T21:52:21.015Z,17.40
2023-03-29T21:55:12.734Z,16.90
2023-03-29T21:58:02.849Z,15.80
2023-03-29T22:00:44.037Z,17.70
2023-03-29T22:03:28.087Z,18.70
2023-03-29T22:06:28.419Z,22.90
2023-03-29T22:09:16.566Z,21.40
2023-03-29T22:12:07.391Z,20.00
2023-03-29T22:15:05.412Z,21.50
2023-03-29T22:17:53.777Z,19.20
2023-03-29T22:20:42.202Z,19.20
2023-03-29T22:23:33.457Z,17.40
2023-03-29T22:26:26.878Z,17.80
2023-03-29T22:29:16.507Z,16.80
2023-03-29T22:31:58.344Z,17.20
2023-03-29T22:35:00.469Z,17.70
2023-03-29T22:37:56.972Z,18.80
2023-03-29T22:40:46.227Z,19.10
2023-03-29T22:43:25.510Z,16.40
2023-03-29T22:46:20.719Z,17.90
2023-03-29T22:49:01.931Z,17.50
2023-03-29T22:51:52.566Z,18.00
2023-03-29T22:54:49.583Z,18.00
2023-03-29T22:57:43.727Z,18.40
2023-03-29T23:01:02.604Z,17.60
2023-03-29T23:04:01.026Z,18.50
2023-03-29T23:06:48.491Z,20.60
2023-03-29T23:09:57.155Z,14.80
2023-03-29T23:15:47.425Z,16.30
2023-03-29T23:18:21.131Z,15.70
2023-03-29T23:20:54.802Z,14.30
2023-03-29T23:23:25.898Z,14.30
2023-03-29T23:25:56.551Z,13.10
2023-03-29T23:28:30.416Z,15.40
2023-03-29T23:31:03.896Z,14.80
2023-03-29T23:33:36.075Z,15.90
2023-03-29T23:36:23.306Z,17.50
2023-03-29T23:39:11.474Z,17.30
2023-03-29T23:41:58.438Z,16.60
2023-03-29T23:44:51.400Z,19.00
2023-03-29T23:47:34.714Z,24.90
2023-03-29T23:50:36.442Z,28.90
2023-03-29T23:53:21.123Z,28.90
2023-03-29T23:56:17.179Z,31.80
